Terminal Aerodrome Forecast
Issued by NWS

Home | Current Version | Previous Version | Graphics & Text | Print | Product List | Glossary Off
Versions: 1 2 3 4 5 6 7 8 9 10 11 12 13 14 15 16 17 18

000
FTUS43 KBIS 280500
TAFDIK
TAF
KDIK 280527Z 2806/2906 17009KT P6SM SCT070
     FM281000 19007KT P6SM VCFG SCT003
     FM281600 20008KT P6SM SCT060
     FM282000 28008KT P6SM FEW060
     FM290300 22006KT P6SM BKN080=

USA.gov is the U.S. government's official web portal to all federal, state and local government web resources and services.